createdAt,value
2018-02-23T00:02:23.186Z,99.90
2018-02-23T00:04:51.762Z,99.90
2018-02-23T00:07:21.629Z,99.90
2018-02-23T00:09:51.250Z,99.90
2018-02-23T00:12:20.284Z,99.90
2018-02-23T00:14:49.318Z,99.90
2018-02-23T00:17:18.026Z,99.90
2018-02-23T00:19:47.696Z,99.90
2018-02-23T00:22:19.192Z,99.90
2018-02-23T00:24:50.423Z,99.90
2018-02-23T00:27:19.784Z,99.90
2018-02-23T00:29:51.081Z,99.90
2018-02-23T00:32:21.876Z,99.90
2018-02-23T00:35:03.099Z,99.90
2018-02-23T00:37:33.536Z,99.90
2018-02-23T00:40:03.707Z,99.90
2018-02-23T00:42:36.138Z,99.90
2018-02-23T00:45:05.647Z,99.90
2018-02-23T00:47:34.551Z,99.90
2018-02-23T00:50:03.706Z,99.90
2018-02-23T00:52:33.992Z,99.90
2018-02-23T00:55:05.712Z,99.90
2018-02-23T00:57:42.150Z,99.90
2018-02-23T01:00:11.237Z,99.90
2018-02-23T01:02:42.672Z,99.90
2018-02-23T01:05:18.248Z,99.90
2018-02-23T01:07:49.903Z,99.90
2018-02-23T01:10:21.999Z,99.90
2018-02-23T01:12:50.730Z,99.90
2018-02-23T01:15:21.054Z,99.90
2018-02-23T01:17:49.548Z,99.90
2018-02-23T01:20:20.878Z,99.90
2018-02-23T01:22:51.978Z,99.90
2018-02-23T01:25:22.663Z,99.90
2018-02-23T01:27:54.470Z,99.90
2018-02-23T01:30:27.398Z,99.90
2018-02-23T01:32:57.169Z,99.90
2018-02-23T01:35:31.366Z,99.90
2018-02-23T01:38:10.339Z,99.90
2018-02-23T01:40:46.855Z,99.90
2018-02-23T01:43:17.757Z,99.90
2018-02-23T01:45:47.970Z,99.90
2018-02-23T01:48:20.972Z,99.90
2018-02-23T01:51:01.301Z,99.90
2018-02-23T01:53:30.264Z,99.90
2018-02-23T01:56:00.119Z,99.90
2018-02-23T01:58:29.059Z,99.90
2018-02-23T02:00:57.187Z,99.90
2018-02-23T02:03:25.314Z,99.90
2018-02-23T02:05:53.477Z,99.90
2018-02-23T02:08:21.637Z,99.90
2018-02-23T02:10:49.785Z,99.90
2018-02-23T02:13:17.908Z,99.90
2018-02-23T02:15:46.067Z,99.90
2018-02-23T02:18:14.237Z,99.90
2018-02-23T02:20:59.153Z,99.90
2018-02-23T02:23:27.305Z,99.90
2018-02-23T02:25:55.494Z,99.90
2018-02-23T02:28:23.604Z,99.90
2018-02-23T02:30:51.763Z,99.90
2018-02-23T02:33:20.120Z,99.90
2018-02-23T02:35:48.399Z,99.90
2018-02-23T02:38:16.572Z,99.90
2018-02-23T02:40:44.692Z,99.90
2018-02-23T02:43:13.227Z,99.90
2018-02-23T02:45:42.243Z,99.90
2018-02-23T02:48:10.394Z,99.90
2018-02-23T02:50:38.550Z,99.90
2018-02-23T02:53:06.734Z,99.90
2018-02-23T02:55:34.871Z,99.90
2018-02-23T02:58:03.025Z,99.90
2018-02-23T03:00:31.146Z,99.90
2018-02-23T03:02:59.306Z,99.90
2018-02-23T03:05:28.190Z,99.90
2018-02-23T03:07:57.108Z,99.90
2018-02-23T03:10:25.248Z,99.90
2018-02-23T03:12:54.138Z,99.90
2018-02-23T03:15:23.054Z,99.90
2018-02-23T03:17:51.176Z,99.90
2018-02-23T03:20:19.326Z,99.90
2018-02-23T03:22:47.451Z,99.90
2018-02-23T03:25:16.353Z,99.90
2018-02-23T03:27:44.539Z,99.90
2018-02-23T03:30:12.639Z,99.90
2018-02-23T03:32:40.758Z,99.90
2018-02-23T03:35:09.663Z,99.90
2018-02-23T03:37:37.788Z,99.90
2018-02-23T03:40:06.000Z,99.90
2018-02-23T03:42:34.134Z,99.90
2018-02-23T03:45:02.277Z,99.90
2018-02-23T03:47:30.417Z,99.90
2018-02-23T03:49:58.562Z,99.90
2018-02-23T03:52:26.723Z,99.90
2018-02-23T03:54:56.370Z,99.90
2018-02-23T03:57:24.509Z,99.90
2018-02-23T03:59:53.424Z,99.90
2018-02-23T04:02:21.561Z,99.90
2018-02-23T04:04:51.218Z,99.90
2018-02-23T04:07:19.357Z,99.90
2018-02-23T04:09:47.486Z,99.90
2018-02-23T04:12:15.657Z,99.90
2018-02-23T04:14:43.842Z,99.90
2018-02-23T04:17:11.977Z,99.90
2018-02-23T04:19:40.105Z,99.90
2018-02-23T04:22:09.100Z,99.90
2018-02-23T04:24:38.057Z,99.90
2018-02-23T04:27:06.290Z,99.90
2018-02-23T04:29:34.438Z,99.90
2018-02-23T04:32:03.726Z,99.90
2018-02-23T04:34:31.858Z,99.90
2018-02-23T04:36:59.995Z,99.90
2018-02-23T04:39:28.198Z,99.90
2018-02-23T04:41:56.342Z,99.90
2018-02-23T04:44:24.483Z,99.90
2018-02-23T04:46:52.745Z,99.90
2018-02-23T04:49:20.873Z,99.90
2018-02-23T04:51:49.018Z,99.90
2018-02-23T04:54:17.917Z,99.90
2018-02-23T04:56:47.521Z,99.90
2018-02-23T04:59:15.662Z,99.90
2018-02-23T05:01:43.842Z,99.90
2018-02-23T05:04:11.970Z,99.90
2018-02-23T05:06:40.101Z,99.90
2018-02-23T05:09:08.237Z,99.90
2018-02-23T05:11:36.379Z,99.90
2018-02-23T05:14:04.528Z,99.90
2018-02-23T05:16:32.709Z,99.90
2018-02-23T05:19:01.574Z,99.90
2018-02-23T05:21:30.465Z,99.90
2018-02-23T05:23:59.404Z,99.90
2018-02-23T05:26:27.495Z,99.90
2018-02-23T05:28:55.977Z,99.90
2018-02-23T05:31:24.094Z,99.90
2018-02-23T05:33:52.316Z,99.90
2018-02-23T05:36:20.496Z,99.90
2018-02-23T05:38:48.635Z,99.90
2018-02-23T05:41:16.758Z,99.90
2018-02-23T05:43:45.701Z,99.90
2018-02-23T05:46:13.830Z,99.90
2018-02-23T05:48:41.986Z,99.90
2018-02-23T05:51:10.872Z,99.90
2018-02-23T05:53:39.833Z,99.90
2018-02-23T05:56:07.996Z,99.90
2018-02-23T05:58:36.126Z,99.90
2018-02-23T06:01:04.273Z,99.90
2018-02-23T06:03:32.403Z,99.90
2018-02-23T06:06:00.554Z,99.90
2018-02-23T06:08:28.693Z,99.90
2018-02-23T06:10:56.845Z,99.90
2018-02-23T06:13:25.074Z,99.90
2018-02-23T06:29:15.354Z,99.90
2018-02-23T06:31:43.555Z,99.90
2018-02-23T06:34:11.701Z,99.90
2018-02-23T06:36:39.839Z,99.90
2018-02-23T06:39:07.965Z,99.90
2018-02-23T06:41:36.165Z,99.90
2018-02-23T06:44:05.093Z,99.90
2018-02-23T06:46:33.231Z,99.90
2018-02-23T06:49:02.122Z,99.90
2018-02-23T06:51:30.275Z,99.90
2018-02-23T06:53:58.425Z,99.90
2018-02-23T06:56:26.579Z,99.90
2018-02-23T06:58:54.713Z,99.90
2018-02-23T07:01:22.850Z,99.90
2018-02-23T07:03:50.989Z,99.90
2018-02-23T07:06:19.337Z,99.90
2018-02-23T07:08:47.471Z,99.90
2018-02-23T07:11:15.700Z,99.90
2018-02-23T07:13:43.758Z,99.90
2018-02-23T07:16:11.909Z,99.90
2018-02-23T07:18:40.807Z,99.90
2018-02-23T07:21:08.953Z,99.90
2018-02-23T07:23:37.878Z,99.90
2018-02-23T07:26:06.009Z,99.90
2018-02-23T07:28:34.155Z,99.90
2018-02-23T07:31:02.677Z,99.90
2018-02-23T07:33:30.831Z,99.90
2018-02-23T07:35:58.993Z,99.90
2018-02-23T07:38:27.131Z,99.90
2018-02-23T07:40:55.285Z,99.90
2018-02-23T07:43:23.466Z,99.90
2018-02-23T07:45:51.603Z,99.90
2018-02-23T07:48:19.804Z,99.90
2018-02-23T07:50:47.963Z,99.90
2018-02-23T07:53:16.846Z,99.90
2018-02-23T07:55:44.995Z,99.90
2018-02-23T07:58:13.910Z,99.90
2018-02-23T08:00:45.477Z,99.90
2018-02-23T08:03:13.617Z,99.90
2018-02-23T08:05:41.852Z,99.90
2018-02-23T08:08:10.009Z,99.90
2018-02-23T08:10:38.134Z,99.90
2018-02-23T08:13:07.038Z,99.10
2018-02-23T08:15:35.189Z,99.10
2018-02-23T08:18:03.333Z,98.30
2018-02-23T08:20:31.475Z,93.40
2018-02-23T08:22:59.610Z,96.90
2018-02-23T08:25:28.511Z,91.80
2018-02-23T08:27:56.651Z,92.20
2018-02-23T08:30:24.782Z,90.70
2018-02-23T08:32:52.913Z,89.20
2018-02-23T08:35:21.033Z,76.40
2018-02-23T08:37:49.167Z,72.40
2018-02-23T08:40:17.299Z,61.50
2018-02-23T08:42:45.444Z,85.70
2018-02-23T08:45:13.554Z,83.60
2018-02-23T08:47:42.548Z,89.70
2018-02-23T08:50:11.812Z,81.00
2018-02-23T08:52:39.936Z,80.30
2018-02-23T08:55:08.097Z,68.80
2018-02-23T08:57:47.065Z,64.40
2018-02-23T09:00:18.973Z,56.40
2018-02-23T09:02:47.935Z,89.30
2018-02-23T09:05:30.979Z,89.90
2018-02-23T09:07:59.887Z,65.00
2018-02-23T09:10:28.045Z,63.50
2018-02-23T09:12:56.967Z,65.80
2018-02-23T09:15:25.152Z,65.90
2018-02-23T09:17:55.831Z,57.40
2018-02-23T09:20:24.758Z,57.20
2018-02-23T09:22:52.925Z,57.60
2018-02-23T09:25:37.704Z,63.10
2018-02-23T09:28:05.889Z,61.00
2018-02-23T09:30:34.035Z,60.90
2018-02-23T09:33:02.210Z,62.40
2018-02-23T09:35:30.404Z,59.70
2018-02-23T09:37:58.532Z,57.50
2018-02-23T09:40:26.699Z,51.90
2018-02-23T09:42:55.594Z,49.80
2018-02-23T09:45:24.503Z,57.40
2018-02-23T09:47:52.623Z,57.50
2018-02-23T09:50:20.817Z,55.50
2018-02-23T09:52:49.738Z,46.90
2018-02-23T09:55:32.759Z,46.80
2018-02-23T09:58:00.929Z,49.30
2018-02-23T10:00:29.170Z,49.00
2018-02-23T10:02:58.078Z,47.30
2018-02-23T10:05:26.251Z,47.20
2018-02-23T10:07:55.161Z,45.90
2018-02-23T10:10:23.429Z,45.90
2018-02-23T10:12:51.589Z,44.70
2018-02-23T10:15:19.725Z,43.00
2018-02-23T10:17:47.868Z,45.20
2018-02-23T10:20:16.031Z,48.30
2018-02-23T10:22:44.186Z,46.80
2018-02-23T10:25:12.338Z,43.60
2018-02-23T10:27:41.340Z,43.60
2018-02-23T10:30:09.486Z,43.60
2018-02-23T10:32:38.439Z,40.40
2018-02-23T10:35:06.546Z,40.50
2018-02-23T10:37:34.689Z,42.50
2018-02-23T10:40:02.953Z,43.00
2018-02-23T10:42:31.128Z,41.60
2018-02-23T10:44:59.249Z,40.70
2018-02-23T10:47:27.439Z,39.00
2018-02-23T10:49:55.599Z,41.10
2018-02-23T10:52:23.754Z,38.90
2018-02-23T10:54:51.935Z,37.10
2018-02-23T10:57:20.092Z,38.50
2018-02-23T10:59:48.225Z,39.40
2018-02-23T11:02:16.405Z,40.20
2018-02-23T11:04:44.588Z,38.20
2018-02-23T11:07:12.714Z,39.40
2018-02-23T11:09:40.860Z,36.70
2018-02-23T11:12:09.776Z,33.30
2018-02-23T11:14:37.952Z,34.00
2018-02-23T11:17:06.085Z,33.80
2018-02-23T11:19:35.006Z,36.20
2018-02-23T11:22:03.237Z,36.20
2018-02-23T11:24:31.428Z,34.60
2018-02-23T11:27:00.310Z,34.80
2018-02-23T11:29:28.486Z,34.80
2018-02-23T11:31:57.394Z,37.30
2018-02-23T11:34:25.550Z,37.30
2018-02-23T11:36:53.697Z,35.80
2018-02-23T11:39:21.852Z,35.70
2018-02-23T11:41:50.052Z,35.60
2018-02-23T11:44:18.210Z,35.60
2018-02-23T11:46:47.114Z,35.10
2018-02-23T11:49:16.048Z,39.90
2018-02-23T11:51:44.250Z,39.90
2018-02-23T11:54:12.385Z,40.00
2018-02-23T11:56:40.529Z,35.90
2018-02-23T11:59:08.697Z,32.80
2018-02-23T12:01:36.856Z,32.80
2018-02-23T12:04:06.290Z,34.10
2018-02-23T12:06:34.425Z,34.10
2018-02-23T12:09:02.732Z,35.80
2018-02-23T12:11:30.896Z,34.80
2018-02-23T12:13:59.209Z,32.70
2018-02-23T12:16:27.315Z,34.30
2018-02-23T12:18:55.468Z,35.10
2018-02-23T12:21:23.659Z,34.90
2018-02-23T12:23:51.722Z,35.30
2018-02-23T12:26:19.902Z,32.90
2018-02-23T12:28:48.032Z,31.50
2018-02-23T12:31:16.278Z,33.50
2018-02-23T12:33:44.403Z,32.50
2018-02-23T12:36:12.541Z,32.40
2018-02-23T12:38:40.674Z,31.90
2018-02-23T12:41:09.585Z,30.80
2018-02-23T12:43:37.717Z,32.30
2018-02-23T12:46:05.914Z,34.00
2018-02-23T12:48:35.188Z,35.30
2018-02-23T12:51:03.310Z,35.30
2018-02-23T12:53:31.458Z,35.00
2018-02-23T12:56:00.345Z,34.00
2018-02-23T12:58:29.249Z,33.80
2018-02-23T13:00:57.400Z,33.90
2018-02-23T13:03:26.277Z,33.50
2018-02-23T13:05:55.193Z,33.50
2018-02-23T13:08:23.330Z,33.50
2018-02-23T13:10:51.473Z,34.30
2018-02-23T13:13:19.655Z,34.60
2018-02-23T13:15:48.589Z,35.00
2018-02-23T13:18:17.500Z,36.20
2018-02-23T13:20:45.668Z,36.10
2018-02-23T13:23:13.804Z,37.60
2018-02-23T13:25:41.921Z,38.00
2018-02-23T13:28:15.708Z,37.60
2018-02-23T13:30:44.056Z,39.60
2018-02-23T13:33:12.196Z,41.90
2018-02-23T13:35:40.551Z,45.60
2018-02-23T13:38:08.729Z,47.90
2018-02-23T13:40:37.759Z,59.00
2018-02-23T13:43:05.994Z,59.00
2018-02-23T13:45:34.135Z,64.30
2018-02-23T13:48:02.320Z,68.50
2018-02-23T13:50:30.485Z,67.40
2018-02-23T13:52:58.620Z,73.40
2018-02-23T13:55:26.752Z,61.50
2018-02-23T13:57:54.862Z,71.10
2018-02-23T14:00:23.002Z,67.10
2018-02-23T14:02:51.176Z,70.40
2018-02-23T14:05:19.309Z,70.10
2018-02-23T14:07:47.469Z,65.20
2018-02-23T14:10:16.361Z,74.60
2018-02-23T14:12:44.890Z,76.00
2018-02-23T14:15:13.186Z,79.60
2018-02-23T14:17:41.355Z,73.50
2018-02-23T14:20:09.529Z,83.30
2018-02-23T14:22:37.661Z,80.50
2018-02-23T14:25:05.843Z,71.80
2018-02-23T14:27:33.973Z,78.20
2018-02-23T14:30:02.962Z,80.20
2018-02-23T14:32:31.092Z,80.30
2018-02-23T14:34:59.313Z,83.20
2018-02-23T14:37:27.550Z,82.70
2018-02-23T14:39:56.480Z,84.20
2018-02-23T14:42:24.757Z,84.20
2018-02-23T14:44:53.028Z,87.70
2018-02-23T14:47:21.223Z,80.60
2018-02-23T14:50:01.064Z,83.90
2018-02-23T14:52:29.248Z,89.50
2018-02-23T14:54:58.094Z,90.80
2018-02-23T14:57:26.233Z,90.80
2018-02-23T14:59:54.362Z,91.00
2018-02-23T15:02:23.307Z,92.30
2018-02-23T15:04:51.430Z,92.30
2018-02-23T15:07:19.587Z,93.70
2018-02-23T15:09:47.705Z,92.70
2018-02-23T15:12:15.840Z,77.10
2018-02-23T15:14:44.108Z,92.00
2018-02-23T15:17:12.269Z,89.70
2018-02-23T15:19:40.416Z,92.90
2018-02-23T15:22:08.621Z,96.00
2018-02-23T15:24:36.745Z,97.00
2018-02-23T15:27:04.918Z,95.80
2018-02-23T15:29:33.034Z,95.60
2018-02-23T15:32:13.039Z,97.20
2018-02-23T15:34:41.266Z,93.40
2018-02-23T15:37:09.394Z,93.50
2018-02-23T15:39:37.514Z,95.20
2018-02-23T15:42:05.650Z,99.00
2018-02-23T15:44:34.535Z,99.90
2018-02-23T15:47:02.675Z,99.90
2018-02-23T15:49:36.473Z,99.90
2018-02-23T15:52:21.404Z,99.90
2018-02-23T15:54:49.534Z,99.90
2018-02-23T15:57:19.449Z,99.90
2018-02-23T15:59:47.569Z,99.90
2018-02-23T16:02:15.704Z,99.90
2018-02-23T16:04:43.826Z,99.90
2018-02-23T16:07:11.966Z,99.90
2018-02-23T16:09:40.088Z,99.90
2018-02-23T16:12:08.250Z,99.90
2018-02-23T16:14:36.628Z,99.90
2018-02-23T16:17:04.771Z,99.90
2018-02-23T16:19:38.733Z,99.90
2018-02-23T16:22:06.985Z,99.90
2018-02-23T16:24:35.101Z,99.90
2018-02-23T16:27:03.246Z,99.90
2018-02-23T16:29:31.397Z,99.90
2018-02-23T16:31:59.537Z,99.90
2018-02-23T16:34:27.692Z,99.90
2018-02-23T16:36:55.845Z,99.90
2018-02-23T16:39:23.983Z,99.90
2018-02-23T16:41:52.194Z,99.90
2018-02-23T16:44:21.073Z,99.90
2018-02-23T16:46:49.253Z,99.90
2018-02-23T16:49:17.376Z,99.90
2018-02-23T16:51:46.305Z,99.90
2018-02-23T16:54:15.218Z,99.90
2018-02-23T16:56:43.334Z,99.90
2018-02-23T16:59:12.258Z,99.90
2018-02-23T17:01:41.157Z,99.90
2018-02-23T17:04:10.085Z,99.90
2018-02-23T17:06:40.765Z,99.90
2018-02-23T17:09:09.614Z,99.90
2018-02-23T17:11:37.754Z,99.90
2018-02-23T17:14:05.910Z,99.90
2018-02-23T17:16:34.807Z,99.90
2018-02-23T17:19:03.710Z,99.90
2018-02-23T17:21:31.858Z,99.90
2018-02-23T17:23:59.980Z,99.90
2018-02-23T17:26:28.104Z,99.90
2018-02-23T17:28:57.078Z,99.90
2018-02-23T17:31:25.194Z,99.90
2018-02-23T17:33:54.095Z,99.90
2018-02-23T17:36:22.515Z,99.90
2018-02-23T17:38:50.845Z,99.90
2018-02-23T17:41:19.206Z,99.90
2018-02-23T17:43:50.264Z,99.90
2018-02-23T17:46:18.477Z,99.90
2018-02-23T17:48:46.724Z,99.90
2018-02-23T17:51:14.805Z,99.90
2018-02-23T17:53:42.949Z,99.90
2018-02-23T17:56:11.089Z,99.90
2018-02-23T17:58:39.246Z,99.90
2018-02-23T18:01:08.287Z,99.90
2018-02-23T18:03:36.426Z,99.90
2018-02-23T18:06:04.563Z,99.90
2018-02-23T18:08:33.537Z,99.90
2018-02-23T18:11:01.812Z,99.90
2018-02-23T18:13:29.979Z,99.90
2018-02-23T18:15:58.105Z,99.90
2018-02-23T18:18:26.635Z,99.90
2018-02-23T18:20:56.651Z,99.90
2018-02-23T18:23:24.841Z,99.90
2018-02-23T18:25:52.972Z,99.90
2018-02-23T18:28:21.133Z,99.90
2018-02-23T18:30:49.274Z,99.90
2018-02-23T18:33:18.198Z,99.90
2018-02-23T18:35:46.355Z,99.90
2018-02-23T18:38:15.290Z,99.90
2018-02-23T18:40:43.487Z,99.90
2018-02-23T18:43:11.671Z,99.90
2018-02-23T18:45:40.569Z,99.90
2018-02-23T18:48:09.480Z,99.90
2018-02-23T18:50:37.644Z,99.90
2018-02-23T18:53:05.802Z,99.90
2018-02-23T18:55:34.706Z,99.90
2018-02-23T20:20:01.585Z,99.90
2018-02-23T20:22:31.241Z,99.90
2018-02-23T20:25:00.377Z,99.90
2018-02-23T20:27:28.687Z,99.90
2018-02-23T20:29:59.612Z,99.90
2018-02-23T20:32:31.237Z,99.90
2018-02-23T20:35:00.417Z,99.90
2018-02-23T20:37:28.578Z,99.90
2018-02-23T20:39:57.745Z,99.90
2018-02-23T20:42:25.901Z,99.90
2018-02-23T20:44:54.066Z,99.90
2018-02-23T20:47:22.210Z,99.90
2018-02-23T20:49:50.372Z,99.90
2018-02-23T20:52:18.512Z,99.90
2018-02-23T20:54:47.402Z,99.90
2018-02-23T20:57:16.325Z,99.90
2018-02-23T20:59:44.459Z,99.90
2018-02-23T21:02:13.349Z,99.90
2018-02-23T21:04:42.276Z,99.90
2018-02-23T21:07:10.395Z,99.90
2018-02-23T21:09:38.540Z,99.90
2018-02-23T21:12:06.690Z,99.90
2018-02-23T21:14:34.826Z,99.90
2018-02-23T21:17:03.730Z,99.90
2018-02-23T21:19:31.914Z,99.90
2018-02-23T21:22:00.069Z,99.90
2018-02-23T21:24:28.214Z,99.90
2018-02-23T21:26:56.356Z,99.90
2018-02-23T21:29:24.492Z,99.90
2018-02-23T21:31:52.670Z,99.90
2018-02-23T21:34:20.831Z,99.90
2018-02-23T21:36:49.001Z,99.90
2018-02-23T21:39:17.148Z,99.90
2018-02-23T21:41:54.002Z,99.90
2018-02-23T21:44:22.212Z,99.90
2018-02-23T21:46:51.185Z,99.90
2018-02-23T21:49:19.398Z,99.90
2018-02-23T21:51:47.591Z,99.90
2018-02-23T21:54:15.730Z,99.90
2018-02-23T21:56:44.737Z,99.90
2018-02-23T21:59:12.917Z,99.90
2018-02-23T22:01:41.872Z,99.90
2018-02-23T22:04:10.764Z,99.90
2018-02-23T22:06:39.669Z,99.90
2018-02-23T22:09:07.796Z,99.90
2018-02-23T22:11:35.981Z,99.90
2018-02-23T22:14:04.110Z,99.90
2018-02-23T22:16:32.337Z,99.90
2018-02-23T22:19:00.456Z,99.90
2018-02-23T22:21:28.601Z,99.90
2018-02-23T22:23:56.732Z,99.90
2018-02-23T22:26:24.921Z,99.90
2018-02-23T22:28:53.822Z,99.90
2018-02-23T22:31:22.724Z,99.90
2018-02-23T22:33:50.873Z,99.90
2018-02-23T22:36:19.070Z,99.90
2018-02-23T22:38:47.215Z,99.90
2018-02-23T22:41:16.170Z,99.90
2018-02-23T22:43:44.314Z,99.90
2018-02-23T22:46:12.468Z,99.90
2018-02-23T22:48:41.356Z,99.90
2018-02-23T22:51:10.250Z,99.90
2018-02-23T22:53:38.415Z,99.90
2018-02-23T22:56:06.598Z,99.90
2018-02-23T22:58:34.771Z,99.90
2018-02-23T23:01:02.915Z,99.90
2018-02-23T23:03:31.053Z,99.90
2018-02-23T23:05:59.171Z,99.90
2018-02-23T23:08:27.320Z,99.90
2018-02-23T23:10:56.262Z,99.90
2018-02-23T23:13:24.436Z,99.90
2018-02-23T23:15:53.323Z,99.90
2018-02-23T23:18:21.493Z,99.90
2018-02-23T23:20:49.625Z,99.90
2018-02-23T23:23:18.556Z,99.90
2018-02-23T23:25:46.688Z,99.90
2018-02-23T23:28:14.853Z,99.90
2018-02-23T23:30:42.985Z,99.90
2018-02-23T23:33:11.237Z,99.90
2018-02-23T23:35:39.418Z,99.90
2018-02-23T23:38:07.913Z,99.90
2018-02-23T23:40:36.141Z,99.90
2018-02-23T23:43:04.269Z,99.90
2018-02-23T23:45:32.401Z,99.90
2018-02-23T23:48:00.561Z,99.90
2018-02-23T23:50:28.706Z,99.90
2018-02-23T23:52:56.870Z,99.90
2018-02-23T23:55:25.008Z,99.90
2018-02-23T23:57:53.137Z,99.90
